Time;durP1;ratioP1;P1;durP2;ratioP2;P2;SDS_P1;SDS_P2;PMS_P1;PMS_P2;Temp;Humidity;BMP_temperature;BMP_pressure;BME280_temperature;BME280_humidity;BME280_pressure;Samples;Min_cycle;Max_cycle;Signal;HPM_P1;HPM_P2
2023/05/15 00:01:20;;;;;;;12.63;3.03;;;28.80;94.40;;;;;;5044137;28;20064;-45
2023/05/15 00:03:47;;;;;;;11.00;3.28;;;28.80;94.50;;;;;;5044286;28;20079;-46
2023/05/15 00:06:14;;;;;;;8.32;3.15;;;28.70;94.50;;;;;;5043807;28;20145;-55
2023/05/15 00:08:40;;;;;;;7.63;2.92;;;28.70;94.60;;;;;;5044275;28;20021;-45
2023/05/15 00:11:07;;;;;;;8.65;2.80;;;28.70;94.60;;;;;;5043880;28;20051;-50
2023/05/15 00:13:33;;;;;;;8.90;3.10;;;28.70;94.90;;;;;;5044051;28;20013;-46
2023/05/15 00:16:00;;;;;;;9.85;3.60;;;28.70;94.60;;;;;;5043857;28;20067;-47
2023/05/15 00:18:27;;;;;;;9.70;3.35;;;28.60;94.70;;;;;;5044209;28;20084;-48
2023/05/15 00:20:53;;;;;;;7.70;2.53;;;28.60;94.70;;;;;;5043536;28;20022;-49
2023/05/15 00:23:20;;;;;;;7.75;2.50;;;28.60;94.70;;;;;;5044192;28;20445;-46
2023/05/15 00:25:47;;;;;;;6.75;2.42;;;28.60;94.80;;;;;;5043702;28;20048;-50
2023/05/15 00:28:13;;;;;;;7.38;2.63;;;28.60;94.80;;;;;;5043901;28;20344;-45
2023/05/15 00:30:40;;;;;;;9.15;2.30;;;28.60;94.80;;;;;;5043646;28;20033;-46
2023/05/15 00:33:07;;;;;;;6.05;2.00;;;28.60;94.80;;;;;;5043878;28;20024;-46
2023/05/15 00:35:33;;;;;;;8.95;2.28;;;28.60;94.90;;;;;;5043525;28;20037;-44
2023/05/15 00:38:00;;;;;;;9.95;2.65;;;28.60;95.10;;;;;;5043710;28;20034;-46
2023/05/15 00:40:28;;;;;;;4.65;2.40;;;28.60;95.00;;;;;;5043466;28;20044;-45
2023/05/15 00:42:55;;;;;;;7.03;1.92;;;28.60;95.00;;;;;;5043519;28;20029;-46
2023/05/15 00:45:24;;;;;;;7.13;2.05;;;28.60;95.10;;;;;;5043345;28;20021;-45
2023/05/15 00:47:52;;;;;;;4.90;1.67;;;28.60;95.00;;;;;;5043967;28;20351;-46
2023/05/15 00:50:20;;;;;;;6.05;1.45;;;28.50;95.00;;;;;;5047428;28;20064;-45
2023/05/15 00:52:47;;;;;;;4.65;1.50;;;28.50;95.10;;;;;;5047679;28;20029;-45
2023/05/15 00:55:14;;;;;;;5.80;1.35;;;28.50;95.10;;;;;;5047417;28;20060;-46
2023/05/15 00:57:43;;;;;;;7.15;1.30;;;28.50;95.00;;;;;;5047040;28;20037;-57
2023/05/15 01:00:10;;;;;;;5.82;1.27;;;28.50;95.00;;;;;;5047417;28;20029;-51
2023/05/15 01:02:37;;;;;;;6.28;1.63;;;28.50;94.90;;;;;;5047310;28;20039;-48
2023/05/15 01:05:06;;;;;;;11.20;2.03;;;28.40;94.80;;;;;;5047103;28;20322;-48
2023/05/15 01:07:40;;;;;;;5.30;2.65;;;28.40;94.70;;;;;;5047223;28;20036;-52
2023/05/15 01:10:07;;;;;;;7.50;2.75;;;28.40;94.70;;;;;;5047112;28;20136;-56
2023/05/15 01:12:36;;;;;;;4.82;1.88;;;28.40;94.50;;;;;;5047121;28;20029;-53
2023/05/15 01:15:03;;;;;;;7.60;1.98;;;28.30;94.30;;;;;;5047086;28;20340;-44
2023/05/15 01:17:31;;;;;;;5.60;1.80;;;28.30;94.20;;;;;;5047211;28;20022;-51
2023/05/15 01:19:59;;;;;;;4.70;1.52;;;28.30;94.00;;;;;;5047074;28;20041;-49
2023/05/15 01:22:44;;;;;;;5.05;1.15;;;28.30;93.70;;;;;;5047094;28;20022;-45
2023/05/15 01:25:32;;;;;;;3.60;0.90;;;28.20;93.50;;;;;;5046783;28;20076;-46
2023/05/15 01:28:08;;;;;;;10.27;1.35;;;28.20;93.40;;;;;;5047124;28;20014;-47
2023/05/15 01:30:38;;;;;;;3.88;0.82;;;28.20;93.10;;;;;;5046755;28;20029;-51
2023/05/15 01:33:15;;;;;;;5.32;1.77;;;28.20;93.10;;;;;;5047017;28;20029;-54
2023/05/15 01:36:06;;;;;;;11.02;2.85;;;28.20;93.00;;;;;;5046823;28;20109;-45
2023/05/15 01:38:51;;;;;;;7.22;2.53;;;28.20;93.10;;;;;;5047079;28;20305;-47
2023/05/15 01:41:31;;;;;;;6.47;2.10;;;28.30;93.30;;;;;;5046637;28;20337;-45
2023/05/15 01:44:18;;;;;;;5.50;1.95;;;28.30;93.40;;;;;;5046399;28;20032;-45
2023/05/15 01:46:51;;;;;;;7.95;1.75;;;28.30;93.60;;;;;;5046389;28;20041;-45
2023/05/15 01:49:22;;;;;;;8.18;1.30;;;28.30;94.10;;;;;;5046329;28;20069;-44
2023/05/15 01:51:52;;;;;;;9.48;1.80;;;28.30;94.00;;;;;;5046547;28;20036;-49
2023/05/15 01:54:18;;;;;;;6.20;1.50;;;28.20;94.00;;;;;;5046377;28;20088;-49
2023/05/15 01:56:46;;;;;;;7.47;2.25;;;28.30;94.10;;;;;;5046203;28;20344;-54
2023/05/15 01:59:14;;;;;;;8.40;2.00;;;28.20;94.10;;;;;;5045959;28;20037;-43
2023/05/15 02:01:42;;;;;;;4.97;1.60;;;28.20;94.10;;;;;;5045403;28;20109;-51
2023/05/15 02:04:10;;;;;;;7.47;2.03;;;28.20;94.20;;;;;;5046615;28;20043;-45
2023/05/15 02:06:38;;;;;;;11.70;2.90;;;28.20;94.30;;;;;;5046012;28;20049;-45
2023/05/15 02:09:06;;;;;;;12.93;2.70;;;28.10;94.30;;;;;;5046383;28;20027;-47
2023/05/15 02:11:33;;;;;;;6.15;2.45;;;28.10;94.40;;;;;;5046064;28;20040;-46
2023/05/15 02:14:00;;;;;;;14.70;3.05;;;28.10;94.50;;;;;;5046404;28;20041;-46
2023/05/15 02:16:27;;;;;;;14.07;2.40;;;28.10;94.90;;;;;;5045793;28;20017;-50
2023/05/15 02:18:54;;;;;;;8.40;2.50;;;28.10;94.70;;;;;;5046276;28;20045;-45
2023/05/15 02:21:20;;;;;;;12.38;2.22;;;28.10;94.70;;;;;;5045870;28;20033;-45
2023/05/15 02:23:47;;;;;;;10.82;2.40;;;28.00;94.80;;;;;;5046146;28;20025;-57
2023/05/15 02:26:20;;;;;;;8.68;1.95;;;28.00;94.80;;;;;;5045624;28;20033;-52
2023/05/15 02:29:07;;;;;;;9.60;3.72;;;28.00;94.90;;;;;;5045993;28;20026;-45
2023/05/15 02:31:50;;;;;;;11.63;4.47;;;28.00;95.00;;;;;;5045483;28;20037;-47
2023/05/15 02:34:25;;;;;;;;;;;28.00;95.00;;;;;;5046037;28;20025;-46
2023/05/15 02:36:56;;;;;;;11.40;4.10;;;28.00;94.90;;;;;;5046034;28;19936;-49
2023/05/15 02:39:23;;;;;;;11.30;4.25;;;28.00;95.00;;;;;;5045439;28;20056;-45
2023/05/15 02:41:52;;;;;;;8.10;3.92;;;28.00;95.00;;;;;;5045233;28;20292;-46
2023/05/15 02:44:19;;;;;;;8.90;3.63;;;28.00;95.10;;;;;;5045302;28;20033;-53
2023/05/15 02:46:47;;;;;;;10.80;3.65;;;27.90;95.00;;;;;;5045269;28;20034;-48
2023/05/15 02:49:15;;;;;;;6.35;2.95;;;27.90;94.90;;;;;;5045153;28;20029;-46
2023/05/15 02:51:42;;;;;;;10.32;3.08;;;28.00;94.90;;;;;;5045279;28;20068;-46
2023/05/15 02:54:09;;;;;;;10.02;3.63;;;27.90;94.80;;;;;;5045652;28;20017;-45
2023/05/15 02:56:36;;;;;;;11.65;4.13;;;27.90;94.90;;;;;;5045018;28;20195;-45
2023/05/15 02:59:03;;;;;;;8.05;3.88;;;27.90;95.00;;;;;;5044866;28;20241;-45
2023/05/15 03:01:30;;;;;;;13.05;4.00;;;27.80;95.10;;;;;;5045087;28;20039;-47
2023/05/15 03:03:57;;;;;;;9.48;2.85;;;27.80;95.10;;;;;;5045314;28;20171;-49
2023/05/15 03:06:24;;;;;;;7.57;2.00;;;27.80;95.00;;;;;;5044842;28;20080;-48
2023/05/15 03:08:50;;;;;;;7.18;1.85;;;27.80;95.00;;;;;;5045356;28;20197;-47
2023/05/15 03:11:18;;;;;;;5.97;1.98;;;27.80;95.00;;;;;;5044527;28;20033;-51
2023/05/15 03:13:44;;;;;;;4.22;1.38;;;27.80;95.10;;;;;;5045176;28;20028;-49
2023/05/15 03:16:11;;;;;;;7.07;1.48;;;27.70;94.90;;;;;;5044741;28;20111;-49
2023/05/15 03:18:37;;;;;;;4.78;1.17;;;27.70;94.90;;;;;;5044982;28;20039;-47
2023/05/15 03:21:04;;;;;;;4.35;1.25;;;27.70;94.80;;;;;;5044587;28;20033;-45
2023/05/15 03:23:32;;;;;;;5.57;1.08;;;27.70;94.80;;;;;;5045082;28;20037;-47
2023/05/15 03:25:58;;;;;;;4.25;1.20;;;27.70;94.60;;;;;;5044507;28;20029;-44
2023/05/15 03:28:25;;;;;;;5.05;0.98;;;27.70;94.70;;;;;;5044521;28;20025;-45
2023/05/15 03:30:52;;;;;;;9.57;0.90;;;27.60;94.60;;;;;;5044477;28;20286;-52
2023/05/15 03:33:19;;;;;;;7.28;1.20;;;27.60;94.70;;;;;;5044703;28;20029;-49
2023/05/15 03:35:46;;;;;;;3.78;0.93;;;27.60;94.40;;;;;;5044348;28;20047;-47
2023/05/15 03:38:12;;;;;;;3.67;1.05;;;27.70;94.30;;;;;;5044661;28;20025;-47
2023/05/15 03:40:39;;;;;;;3.65;0.80;;;27.60;94.30;;;;;;5044285;28;20321;-46
2023/05/15 03:43:06;;;;;;;5.25;1.30;;;27.60;94.20;;;;;;5044653;28;20032;-45
2023/05/15 03:45:36;;;;;;;3.38;1.00;;;27.70;94.30;;;;;;5044325;28;20068;-46
2023/05/15 03:48:02;;;;;;;5.15;0.90;;;27.60;94.20;;;;;;5044438;28;20021;-49
2023/05/15 03:50:29;;;;;;;3.53;0.93;;;27.70;94.20;;;;;;5044223;28;20105;-50
2023/05/15 03:52:56;;;;;;;3.33;1.02;;;27.60;94.30;;;;;;5044495;28;20082;-45
2023/05/15 03:55:22;;;;;;;3.33;0.98;;;27.60;94.30;;;;;;5044173;28;20026;-48
2023/05/15 03:57:49;;;;;;;4.38;1.20;;;27.60;94.30;;;;;;5043992;28;20349;-47
2023/05/15 04:00:16;;;;;;;3.50;1.10;;;27.60;94.20;;;;;;5044119;28;20033;-47
2023/05/15 04:02:43;;;;;;;3.33;1.13;;;27.60;94.10;;;;;;5044220;28;20063;-48
2023/05/15 04:05:09;;;;;;;3.70;0.90;;;27.50;94.00;;;;;;5043871;28;20038;-44
2023/05/15 04:07:37;;;;;;;4.53;1.00;;;27.60;94.00;;;;;;5044156;28;20017;-44
2023/05/15 04:10:04;;;;;;;4.93;0.80;;;27.60;93.90;;;;;;5043910;28;20340;-45
2023/05/15 04:12:34;;;;;;;4.65;0.80;;;27.50;93.80;;;;;;5043712;28;20061;-46
2023/05/15 04:15:21;;;;;;;4.40;1.00;;;27.50;93.70;;;;;;5043875;28;20032;-52
2023/05/15 04:17:50;;;;;;;3.58;0.90;;;27.50;93.70;;;;;;5043928;28;20029;-44
2023/05/15 04:20:19;;;;;;;4.60;0.90;;;27.50;93.70;;;;;;5043897;28;20041;-49
2023/05/15 04:22:46;;;;;;;4.38;0.90;;;27.50;93.70;;;;;;5043314;28;20033;-52
2023/05/15 04:25:13;;;;;;;5.70;0.70;;;27.40;93.60;;;;;;5043792;28;20030;-45
2023/05/15 04:27:41;;;;;;;6.93;1.05;;;27.50;93.60;;;;;;5043866;28;20017;-44
2023/05/15 04:30:10;;;;;;;5.00;0.90;;;27.40;93.60;;;;;;5043717;28;20073;-45
2023/05/15 04:32:38;;;;;;;7.28;0.93;;;27.40;93.60;;;;;;5043812;28;20028;-45
2023/05/15 04:35:09;;;;;;;4.88;0.70;;;27.40;93.70;;;;;;5043814;28;20133;-44
2023/05/15 04:37:40;;;;;;;6.63;1.23;;;27.50;93.80;;;;;;5043688;28;20021;-44
2023/05/15 04:40:07;;;;;;;5.82;0.98;;;27.40;93.70;;;;;;5043562;28;20030;-45
2023/05/15 04:42:35;;;;;;;2.03;0.70;;;27.40;93.80;;;;;;5043687;28;20026;-47
2023/05/15 04:45:03;;;;;;;4.85;1.10;;;27.40;93.90;;;;;;5043455;28;20063;-48
2023/05/15 04:47:29;;;;;;;3.10;0.90;;;27.40;93.90;;;;;;5043644;28;20025;-47
2023/05/15 04:49:56;;;;;;;7.97;0.98;;;27.40;93.80;;;;;;5043619;28;20036;-45
2023/05/15 04:52:22;;;;;;;5.60;1.08;;;27.40;93.90;;;;;;5043440;28;20040;-49
2023/05/15 04:54:50;;;;;;;4.38;0.95;;;27.40;93.90;;;;;;5043496;28;20021;-49
2023/05/15 04:57:16;;;;;;;6.18;1.08;;;27.30;93.90;;;;;;5043369;28;20025;-44
2023/05/15 04:59:43;;;;;;;5.60;0.70;;;27.30;93.90;;;;;;5043296;28;20240;-46
2023/05/15 05:02:10;;;;;;;5.30;0.90;;;27.30;93.90;;;;;;5043643;28;20017;-44
2023/05/15 05:04:36;;;;;;;5.22;0.82;;;27.30;93.90;;;;;;5043458;28;20029;-44
2023/05/15 05:07:04;;;;;;;7.60;1.13;;;27.30;93.90;;;;;;5043252;28;20039;-45
2023/05/15 05:09:31;;;;;;;4.50;0.90;;;27.30;94.00;;;;;;5043418;28;20030;-47
2023/05/15 05:12:01;;;;;;;8.48;0.90;;;27.20;94.10;;;;;;5043375;28;20040;-44
2023/05/15 05:14:28;;;;;;;4.75;0.70;;;27.20;94.00;;;;;;5043189;28;20317;-46
2023/05/15 05:16:54;;;;;;;5.82;0.77;;;27.20;94.00;;;;;;5043395;28;20322;-54
2023/05/15 05:19:21;;;;;;;5.45;0.90;;;27.20;94.00;;;;;;5043199;28;20143;-45
2023/05/15 05:21:47;;;;;;;5.63;1.00;;;27.20;94.10;;;;;;5043052;28;20032;-49
2023/05/15 05:24:14;;;;;;;5.05;1.00;;;27.20;94.00;;;;;;5043347;28;20033;-44
2023/05/15 05:26:44;;;;;;;6.18;0.88;;;27.20;94.20;;;;;;5043295;28;20036;-45
2023/05/15 05:29:10;;;;;;;5.70;1.05;;;27.20;94.30;;;;;;5043536;28;20064;-45
2023/05/15 05:31:37;;;;;;;5.50;1.02;;;27.20;94.30;;;;;;5043062;28;20097;-45
2023/05/15 05:34:04;;;;;;;3.63;0.60;;;27.20;94.40;;;;;;5043670;28;20075;-47
2023/05/15 05:36:30;;;;;;;4.85;0.90;;;27.10;94.50;;;;;;5045501;28;20060;-49
2023/05/15 05:38:57;;;;;;;5.05;0.77;;;27.10;94.50;;;;;;5047157;28;20021;-45
2023/05/15 05:41:23;;;;;;;6.65;0.93;;;27.10;94.50;;;;;;5046732;28;20029;-45
2023/05/15 05:43:50;;;;;;;4.95;0.70;;;27.10;94.60;;;;;;5046896;28;20017;-47
2023/05/15 05:46:17;;;;;;;8.70;1.45;;;27.10;94.60;;;;;;5046765;28;20044;-45
2023/05/15 05:48:43;;;;;;;5.90;1.13;;;27.10;95.00;;;;;;5046368;28;20100;-56
2023/05/15 05:51:10;;;;;;;4.97;0.98;;;27.10;94.80;;;;;;5050108;28;20029;-47
2023/05/15 05:53:36;;;;;;;9.57;1.10;;;27.10;94.80;;;;;;5053415;28;20045;-55
2023/05/15 05:56:03;;;;;;;7.10;1.60;;;27.10;94.80;;;;;;5055265;28;20336;-52
2023/05/15 05:58:29;;;;;;;9.73;2.03;;;27.10;94.80;;;;;;5062280;28;20048;-47
2023/05/15 06:00:56;;;;;;;5.43;2.17;;;27.20;94.80;;;;;;5065122;28;20096;-48
2023/05/15 06:03:24;;;;;;;9.48;2.42;;;27.20;94.80;;;;;;5065100;28;20016;-52
2023/05/15 06:05:52;;;;;;;6.45;2.20;;;27.10;94.70;;;;;;5065590;28;20037;-50
2023/05/15 06:08:19;;;;;;;5.00;1.73;;;27.10;94.80;;;;;;5064856;28;20232;-47
2023/05/15 06:10:46;;;;;;;6.30;2.08;;;27.10;94.80;;;;;;5063800;28;20029;-49
2023/05/15 06:13:13;;;;;;;5.95;1.70;;;27.10;94.70;;;;;;5063153;28;20029;-50
2023/05/15 06:15:41;;;;;;;7.60;1.85;;;27.10;94.70;;;;;;5062602;28;20036;-50
2023/05/15 06:18:07;;;;;;;5.40;1.08;;;27.10;94.70;;;;;;5062792;28;20210;-49
2023/05/15 06:20:34;;;;;;;6.53;1.40;;;27.10;94.60;;;;;;5063088;28;20218;-51
2023/05/15 06:23:01;;;;;;;8.23;1.50;;;27.00;94.50;;;;;;5062847;28;20028;-52
2023/05/15 06:25:27;;;;;;;3.63;1.00;;;27.00;94.40;;;;;;5063131;28;20053;-54
2023/05/15 06:27:54;;;;;;;6.32;1.02;;;27.00;94.50;;;;;;5065079;28;20032;-50
2023/05/15 06:30:21;;;;;;;4.38;1.05;;;27.00;94.50;;;;;;5064994;28;20068;-49
2023/05/15 06:32:48;;;;;;;5.60;1.00;;;26.90;94.40;;;;;;5065181;28;20092;-48
2023/05/15 06:35:14;;;;;;;5.85;1.33;;;26.90;94.40;;;;;;5064582;28;20098;-47
2023/05/15 06:37:41;;;;;;;3.40;0.93;;;27.00;94.40;;;;;;5064747;28;20033;-53
2023/05/15 06:40:09;;;;;;;4.15;1.00;;;27.00;94.40;;;;;;5065489;28;20055;-51
2023/05/15 06:42:36;;;;;;;10.40;1.40;;;27.00;94.40;;;;;;5065350;28;20033;-49
2023/05/15 06:45:03;;;;;;;3.50;0.75;;;27.00;94.40;;;;;;5065281;28;20017;-48
2023/05/15 06:47:30;;;;;;;2.35;0.80;;;26.90;94.40;;;;;;5065241;28;20067;-51
2023/05/15 06:49:56;;;;;;;4.05;0.88;;;26.90;94.40;;;;;;5065376;28;20103;-50
2023/05/15 06:52:23;;;;;;;5.72;1.15;;;26.90;94.50;;;;;;5065278;28;20032;-51
2023/05/15 06:54:50;;;;;;;6.10;0.80;;;26.90;94.60;;;;;;5065221;28;20224;-47
2023/05/15 06:57:19;;;;;;;6.95;1.20;;;26.80;94.70;;;;;;5065090;28;20021;-47
2023/05/15 06:59:46;;;;;;;6.22;0.90;;;26.80;94.70;;;;;;5064912;28;20040;-48
2023/05/15 07:02:12;;;;;;;5.60;0.85;;;26.80;94.70;;;;;;5065143;28;20305;-49
2023/05/15 07:04:39;;;;;;;4.80;0.80;;;26.70;94.70;;;;;;5065105;28;20205;-51
2023/05/15 07:07:06;;;;;;;3.05;0.77;;;26.70;94.70;;;;;;5064867;28;20327;-48
2023/05/15 07:09:34;;;;;;;7.03;1.20;;;26.80;94.80;;;;;;5064906;28;20213;-51
2023/05/15 07:12:00;;;;;;;9.57;1.02;;;26.80;94.70;;;;;;5064850;28;20028;-49
2023/05/15 07:14:27;;;;;;;6.70;0.82;;;26.70;94.70;;;;;;5064773;28;20060;-55
2023/05/15 07:16:54;;;;;;;4.80;0.80;;;26.70;94.70;;;;;;5064785;28;20058;-50
2023/05/15 07:19:20;;;;;;;5.95;1.02;;;26.70;94.70;;;;;;5064681;28;20045;-52
2023/05/15 07:21:47;;;;;;;5.60;0.70;;;26.70;94.70;;;;;;5064567;28;20013;-49
2023/05/15 07:24:13;;;;;;;5.00;0.85;;;26.70;94.70;;;;;;5064710;28;20036;-47
2023/05/15 07:26:40;;;;;;;5.85;0.77;;;26.70;94.80;;;;;;5064677;28;20025;-47
2023/05/15 07:29:07;;;;;;;2.88;0.70;;;26.70;94.70;;;;;;5064412;28;20013;-49
2023/05/15 07:31:33;;;;;;;7.55;0.95;;;26.70;94.80;;;;;;5064443;28;20036;-47
2023/05/15 07:34:00;;;;;;;3.25;0.73;;;26.70;94.80;;;;;;5064961;28;20021;-47
2023/05/15 07:36:26;;;;;;;4.43;0.70;;;26.60;94.80;;;;;;5064346;28;20028;-49
2023/05/15 07:38:53;;;;;;;5.68;1.25;;;26.60;94.80;;;;;;5064775;28;20029;-45
2023/05/15 07:41:20;;;;;;;6.10;1.05;;;26.60;94.80;;;;;;5064371;28;20059;-50
2023/05/15 07:43:47;;;;;;;10.55;1.00;;;26.60;94.90;;;;;;5064641;28;20029;-50
2023/05/15 07:46:14;;;;;;;4.97;0.82;;;26.60;94.80;;;;;;5064331;28;20029;-49
2023/05/15 07:48:40;;;;;;;6.00;0.98;;;26.60;94.80;;;;;;5064612;28;20079;-47
2023/05/15 07:51:07;;;;;;;6.20;1.00;;;26.60;94.90;;;;;;5064231;28;20041;-58
2023/05/15 07:53:33;;;;;;;3.20;0.88;;;26.60;94.90;;;;;;5064417;28;20059;-47
2023/05/15 07:56:00;;;;;;;7.75;1.10;;;26.60;95.00;;;;;;5064142;28;20041;-49
2023/05/15 07:58:27;;;;;;;5.65;1.00;;;26.60;95.00;;;;;;5063220;28;20085;-52
2023/05/15 08:00:54;;;;;;;5.40;1.13;;;26.60;95.00;;;;;;5063835;28;20325;-49
2023/05/15 08:03:20;;;;;;;5.53;1.50;;;26.60;95.00;;;;;;5062949;28;20033;-55
2023/05/15 08:05:47;;;;;;;5.78;1.27;;;26.60;95.10;;;;;;5063992;28;20024;-48
2023/05/15 08:08:14;;;;;;;6.15;1.40;;;26.60;95.00;;;;;;5064068;28;20033;-52
2023/05/15 08:10:41;;;;;;;7.55;1.55;;;26.60;95.00;;;;;;5063858;28;20023;-51
2023/05/15 08:13:07;;;;;;;6.88;1.20;;;26.60;95.00;;;;;;5064211;28;20095;-51
2023/05/15 08:15:34;;;;;;;4.90;1.08;;;26.50;94.90;;;;;;5063735;28;20059;-48
2023/05/15 08:18:01;;;;;;;5.15;1.08;;;26.50;95.00;;;;;;5064318;28;20025;-50
2023/05/15 08:20:27;;;;;;;6.20;1.48;;;26.50;95.00;;;;;;5063713;28;20263;-50
2023/05/15 08:22:54;;;;;;;5.75;1.60;;;26.50;95.00;;;;;;5063846;28;20430;-58
2023/05/15 08:25:21;;;;;;;4.60;1.25;;;26.60;95.00;;;;;;5063763;28;20028;-54
2023/05/15 08:27:47;;;;;;;5.07;1.20;;;26.50;95.00;;;;;;5063653;28;20029;-48
2023/05/15 08:30:14;;;;;;;10.63;1.55;;;26.60;95.00;;;;;;5063651;28;20021;-49
2023/05/15 08:32:46;;;;;;;8.05;1.10;;;26.50;95.00;;;;;;5063787;28;20060;-47
2023/05/15 08:35:12;;;;;;;6.32;1.33;;;26.60;95.00;;;;;;5063673;28;20037;-47
2023/05/15 08:37:39;;;;;;;5.20;1.13;;;26.60;95.00;;;;;;5063619;28;20028;-49
2023/05/15 08:40:09;;;;;;;7.00;1.10;;;26.50;95.00;;;;;;5063483;28;20029;-49
2023/05/15 08:42:52;;;;;;;4.10;1.20;;;26.50;95.00;;;;;;5063775;28;20017;-48
2023/05/15 08:45:19;;;;;;;6.65;1.70;;;26.50;95.00;;;;;;5063547;28;20032;-48
2023/05/15 08:47:46;;;;;;;4.78;1.10;;;26.50;95.10;;;;;;5063698;28;20047;-51
2023/05/15 08:50:14;;;;;;;5.28;1.30;;;26.40;95.10;;;;;;5063409;28;20278;-49
2023/05/15 08:52:45;;;;;;;4.00;1.25;;;26.40;95.00;;;;;;5063584;28;20092;-49
2023/05/15 08:55:16;;;;;;;6.70;1.50;;;26.50;95.00;;;;;;5063499;28;20032;-52
2023/05/15 08:57:43;;;;;;;3.97;1.00;;;26.40;94.90;;;;;;5063259;28;20049;-47
2023/05/15 09:00:13;;;;;;;3.15;1.10;;;26.50;95.00;;;;;;5063423;28;20052;-48
2023/05/15 09:02:41;;;;;;;5.97;1.27;;;26.40;94.90;;;;;;5063509;28;20075;-50
2023/05/15 09:05:09;;;;;;;4.22;1.17;;;26.50;94.80;;;;;;5063561;28;20323;-50
2023/05/15 09:07:37;;;;;;;4.78;1.45;;;26.50;94.70;;;;;;5063508;28;20025;-49
2023/05/15 09:10:05;;;;;;;5.03;1.08;;;26.40;94.70;;;;;;5065363;28;20048;-53
2023/05/15 09:12:33;;;;;;;6.38;1.10;;;26.50;94.70;;;;;;5067051;28;20056;-49
2023/05/15 09:15:16;;;;;;;12.60;1.15;;;26.50;94.60;;;;;;5067190;28;20052;-49
2023/05/15 09:17:43;;;;;;;5.38;0.80;;;26.50;94.50;;;;;;5067096;28;20032;-46
2023/05/15 09:20:27;;;;;;;5.90;1.38;;;26.50;94.60;;;;;;5066953;28;20061;-51
2023/05/15 09:22:55;;;;;;;6.75;1.10;;;26.50;94.60;;;;;;5067053;28;20024;-54
2023/05/15 09:25:36;;;;;;;6.07;1.02;;;26.50;94.60;;;;;;5066910;28;20036;-47
2023/05/15 09:28:07;;;;;;;3.30;0.80;;;26.50;94.80;;;;;;5067101;28;20039;-49
2023/05/15 09:30:38;;;;;;;7.15;0.80;;;26.60;94.70;;;;;;5066790;28;20033;-51
2023/05/15 09:33:05;;;;;;;4.55;0.98;;;26.50;94.70;;;;;;5066943;28;20021;-49
2023/05/15 09:35:36;;;;;;;6.78;1.00;;;26.50;94.70;;;;;;5066654;28;20032;-48
2023/05/15 09:38:09;;;;;;;4.95;0.95;;;26.50;94.70;;;;;;5066941;28;20178;-49
2023/05/15 09:40:35;;;;;;;5.43;0.93;;;26.50;94.70;;;;;;5066521;28;20036;-51
2023/05/15 09:43:02;;;;;;;6.10;1.10;;;26.40;94.70;;;;;;5066726;28;20021;-48
2023/05/15 09:45:30;;;;;;;5.55;1.13;;;26.40;95.00;;;;;;5066724;28;20028;-49
2023/05/15 09:48:01;;;;;;;6.50;1.10;;;26.40;94.80;;;;;;5066621;28;20029;-53
2023/05/15 09:50:38;;;;;;;5.40;0.90;;;26.40;94.80;;;;;;5066374;28;20317;-49
2023/05/15 09:53:05;;;;;;;5.88;1.17;;;26.50;94.80;;;;;;5066617;28;20244;-49
2023/05/15 09:55:33;;;;;;;5.43;0.95;;;26.40;94.90;;;;;;5066212;28;20031;-51
2023/05/15 09:58:14;;;;;;;6.38;1.15;;;26.50;94.90;;;;;;5066127;28;20121;-47
2023/05/15 10:00:42;;;;;;;6.20;0.73;;;26.40;94.90;;;;;;5066033;28;20029;-48
2023/05/15 10:03:10;;;;;;;2.92;0.85;;;26.40;94.80;;;;;;5066472;28;20029;-51
2023/05/15 10:05:38;;;;;;;6.13;1.00;;;26.40;94.90;;;;;;5066162;28;20031;-48
2023/05/15 10:08:05;;;;;;;4.13;0.98;;;26.40;94.90;;;;;;5066226;28;20016;-48
2023/05/15 10:10:32;;;;;;;5.43;1.10;;;26.40;94.90;;;;;;5066138;28;20044;-48
2023/05/15 10:13:04;;;;;;;4.10;1.40;;;26.40;94.90;;;;;;5066258;28;20033;-49
2023/05/15 10:15:32;;;;;;;5.85;1.27;;;26.40;94.90;;;;;;5065900;28;20309;-52
2023/05/15 10:17:59;;;;;;;4.65;0.88;;;26.40;95.00;;;;;;5066188;28;20036;-49
2023/05/15 10:20:26;;;;;;;4.78;1.20;;;26.40;95.00;;;;;;5065773;28;20036;-51
2023/05/15 10:22:55;;;;;;;4.05;1.17;;;26.40;95.00;;;;;;5065461;28;20325;-55
2023/05/15 10:25:49;;;;;;;11.57;2.00;;;26.40;95.00;;;;;;5065815;28;20092;-49
2023/05/15 10:28:18;;;;;;;7.20;1.20;;;26.40;95.00;;;;;;5066007;28;20021;-48
2023/05/15 10:30:45;;;;;;;8.60;1.25;;;26.40;95.00;;;;;;5065602;28;20059;-51
2023/05/15 10:33:13;;;;;;;8.82;1.80;;;26.40;95.00;;;;;;5065985;28;20017;-50
2023/05/15 10:35:40;;;;;;;6.10;1.20;;;26.40;95.10;;;;;;5065619;28;20037;-48
2023/05/15 10:38:08;;;;;;;8.48;1.52;;;26.40;95.20;;;;;;5065925;28;20071;-48
2023/05/15 10:40:39;;;;;;;9.27;1.70;;;26.40;95.20;;;;;;5065427;28;20140;-49
2023/05/15 10:43:09;;;;;;;6.00;1.30;;;26.40;95.20;;;;;;5065771;28;20021;-48
2023/05/15 10:45:35;;;;;;;7.28;1.30;;;26.40;95.10;;;;;;5065637;28;20028;-49
2023/05/15 10:48:04;;;;;;;8.35;1.63;;;26.40;95.20;;;;;;5058557;28;20031;-52
2023/05/15 10:50:31;;;;;;;10.20;1.85;;;26.40;95.20;;;;;;5059426;28;20055;-51
2023/05/15 10:52:57;;;;;;;8.85;1.88;;;26.40;95.30;;;;;;5045515;28;20037;-48
2023/05/15 10:55:24;;;;;;;8.02;2.60;;;26.40;95.40;;;;;;5045425;28;20337;-54
2023/05/15 10:57:50;;;;;;;10.00;2.65;;;26.40;95.50;;;;;;5045127;28;20230;-55
2023/05/15 11:00:24;;;;;;;13.50;3.22;;;26.40;95.50;;;;;;5045073;28;20068;-52
2023/05/15 11:02:55;;;;;;;10.80;2.70;;;26.40;95.50;;;;;;5045241;28;20040;-55
2023/05/15 11:05:23;;;;;;;10.18;3.70;;;26.40;95.50;;;;;;5044948;28;20079;-49
2023/05/15 11:08:20;;;;;;;10.73;2.92;;;26.40;95.60;;;;;;5045224;28;20029;-47
2023/05/15 11:10:46;;;;;;;16.13;2.90;;;26.40;95.60;;;;;;5044965;28;20048;-49
2023/05/15 11:13:13;;;;;;;10.82;3.40;;;26.40;95.50;;;;;;5045296;28;20021;-53
2023/05/15 11:15:47;;;;;;;13.68;3.13;;;26.50;95.60;;;;;;5045186;28;20091;-50
2023/05/15 11:18:14;;;;;;;8.07;2.60;;;26.50;95.50;;;;;;5045201;28;20052;-48
2023/05/15 11:20:41;;;;;;;14.27;3.28;;;26.50;95.40;;;;;;5044666;28;20041;-53
2023/05/15 11:23:08;;;;;;;11.60;2.88;;;26.50;95.40;;;;;;5044902;28;20344;-52
2023/05/15 11:25:36;;;;;;;13.73;3.00;;;26.60;95.40;;;;;;5044648;28;20045;-45
2023/05/15 11:28:04;;;;;;;14.75;2.70;;;26.40;95.30;;;;;;5045687;28;20140;-45
2023/05/15 11:30:38;;;;;;;11.98;2.47;;;26.50;95.40;;;;;;5045016;28;20195;-44
2023/05/15 11:33:10;;;;;;;11.57;2.55;;;26.40;95.30;;;;;;5044750;28;20049;-49
2023/05/15 11:35:38;;;;;;;8.85;2.20;;;26.50;95.30;;;;;;5044366;28;20034;-45
2023/05/15 11:38:25;;;;;;;7.20;2.10;;;26.50;95.30;;;;;;5044079;28;20036;-49
2023/05/15 11:41:02;;;;;;;8.07;2.35;;;26.50;95.30;;;;;;5043991;28;20033;-45
2023/05/15 11:43:34;;;;;;;8.95;1.88;;;26.60;95.40;;;;;;5044427;28;20072;-47
2023/05/15 11:46:07;;;;;;;9.25;1.70;;;26.50;95.30;;;;;;5044182;28;20029;-45
2023/05/15 11:48:34;;;;;;;;;;;26.60;95.30;;;;;;5045111;28;20044;-49
2023/05/15 11:51:01;;;;;;;7.00;1.58;;;26.60;95.30;;;;;;5044222;28;19909;-45
2023/05/15 11:53:29;;;;;;;5.43;1.90;;;26.60;95.20;;;;;;5044397;28;20033;-45
2023/05/15 11:55:56;;;;;;;6.63;1.50;;;26.60;95.40;;;;;;5044218;28;20028;-56
2023/05/15 11:58:25;;;;;;;10.18;1.58;;;26.60;95.10;;;;;;5044021;28;20075;-49
2023/05/15 12:00:54;;;;;;;4.90;1.40;;;26.60;95.10;;;;;;5043835;28;20045;-45
2023/05/15 12:03:26;;;;;;;5.03;1.30;;;26.60;95.00;;;;;;5044428;28;20270;-51
2023/05/15 12:05:53;;;;;;;4.28;1.30;;;26.60;95.10;;;;;;5043986;28;20022;-49
2023/05/15 12:08:20;;;;;;;3.80;1.30;;;26.70;95.10;;;;;;5044494;28;20061;-48
2023/05/15 12:10:47;;;;;;;6.15;1.90;;;26.70;95.00;;;;;;5043999;28;20073;-53
2023/05/15 12:13:16;;;;;;;5.45;2.00;;;26.70;95.00;;;;;;5044307;28;20025;-52
2023/05/15 12:15:45;;;;;;;7.38;1.92;;;26.70;95.00;;;;;;5043960;28;20065;-49
2023/05/15 12:18:12;;;;;;;6.95;1.77;;;26.70;95.00;;;;;;5044215;28;20021;-45
2023/05/15 12:20:47;;;;;;;10.07;1.98;;;26.70;95.10;;;;;;5043656;28;20037;-48
2023/05/15 12:23:17;;;;;;;6.13;1.55;;;26.70;95.20;;;;;;5044057;28;20029;-46
2023/05/15 12:25:46;;;;;;;6.13;1.50;;;26.70;95.10;;;;;;5043855;28;20048;-52
2023/05/15 12:28:13;;;;;;;6.38;1.60;;;26.70;95.00;;;;;;5043641;28;20027;-57
2023/05/15 12:30:42;;;;;;;9.20;2.35;;;26.70;95.00;;;;;;5044031;28;20029;-46
2023/05/15 12:33:09;;;;;;;16.80;2.80;;;26.70;95.10;;;;;;5044028;28;20029;-49
2023/05/15 12:35:41;;;;;;;15.68;3.47;;;26.70;95.10;;;;;;5043693;28;20249;-56
2023/05/15 12:38:08;;;;;;;15.60;3.08;;;26.70;95.10;;;;;;5043928;28;20041;-54
2023/05/15 12:40:35;;;;;;;14.93;3.35;;;26.80;95.20;;;;;;5043655;28;20024;-47
2023/05/15 12:43:09;;;;;;;6.50;2.40;;;26.80;95.20;;;;;;5044126;28;20037;-47
2023/05/15 12:45:38;;;;;;;11.25;3.55;;;26.80;95.20;;;;;;5046731;28;20025;-47
2023/05/15 12:48:06;;;;;;;9.25;2.70;;;26.80;95.30;;;;;;5047732;28;20076;-47
2023/05/15 12:50:34;;;;;;;7.28;2.33;;;26.90;95.40;;;;;;5047613;28;20041;-48
2023/05/15 12:53:03;;;;;;;11.70;2.53;;;26.90;95.50;;;;;;5047875;28;20252;-48